Waterville, ME

3:57 PM EDT on April 30, 2017 (GMT -0400)
Waterville Lafleur

Weather History for KWVL - March, 2014

Change the Weather History Date:

Monday, March 31, 2014

  Actual Average Record
Temperature  
Mean Temperature 32 °F -  
Max Temperature 35 °F 49 °F 82 °F (1998)
Min Temperature 30 °F 28 °F 11 °F (1969)
Degree Days  
Heating Degree Days 32    
Moisture  
Dew Point 26 °F    
Average Humidity 77    
Maximum Humidity 93    
Minimum Humidity 65    
Precipitation  
Precipitation 0.00 in - - ()
Sea Level Pressure  
Sea Level Pressure 29.84 in    
Wind  
Wind Speed 21 mph (North)    
Max Wind Speed 28 mph    
Max Gust Speed 38 mph    
Visibility 10 miles    
Events      
Averages and records for this station are not official NWS values.
T = Trace of Precipitation, MM = Missing Value Source: NWS Daily Summary

Daily Weather History Graph

Daily Weather History Graph

Search for Another Location

Airport or City:

Trip Planner

Search our weather history database for the weather conditions in past years. The results will help you decide how hot, cold, wet, or windy it might be!

Date:

Astronomy

Mar. 31, 2014 Rise Set
Actual Time 6:21 AM EDT 7:04 PM EDT
Civil Twilight 5:52 AM EDT 7:34 PM EDT
Nautical Twilight 5:17 AM EDT 8:09 PM EDT
Astronomical Twilight 4:41 AM EDT 8:45 PM EDT
Moon 6:40 AM EDT (3/31) 8:23 PM EDT (3/31)
Length of Visible Light 13h 42m
Length of Day
12h 43m
New Moon, 1% of the Moon is Illuminated
Mar 31
New Moon
Apr 7
First Quarter
Apr 15
Full
Apr 22
Last Quarter
Apr 29
New

Hourly Weather History & Observations

Time (EDT) Temp. Windchill Dew Point Humidity Pressure Visibility Wind Dir Wind Speed Gust Speed Precip Events Conditions
12:15 AM 30.2 °F 17.1 °F 28.4 °F 93% 29.75 in 10.0 mi North 21.9 mph 29.9 mph N/A   Overcast
12:35 AM 30.2 °F 17.4 °F 26.6 °F 86% 29.76 in 10.0 mi North 20.7 mph 29.9 mph N/A   Overcast
12:55 AM 30.2 °F 17.8 °F 28.4 °F 93% 29.77 in 9.0 mi North 19.6 mph 27.6 mph N/A   Overcast
1:15 AM 30.2 °F 17.8 °F 28.4 °F 93% 29.77 in 7.0 mi North 19.6 mph 28.8 mph N/A   Overcast
1:35 AM 30.2 °F 18.1 °F 28.4 °F 93% 29.76 in 8.0 mi North 18.4 mph - N/A   Overcast
1:55 AM 30.2 °F 16.8 °F 28.4 °F 93% 29.75 in 7.0 mi North 23.0 mph 28.8 mph N/A   Overcast
2:15 AM 30.2 °F 17.1 °F 28.4 °F 93% 29.75 in 5.0 mi North 21.9 mph 27.6 mph N/A   Overcast
2:35 AM 30.2 °F 17.8 °F 28.4 °F 93% 29.74 in 10.0 mi NNE 19.6 mph 31.1 mph N/A   Overcast
2:55 AM 30.2 °F 16.8 °F 28.4 °F 93% 29.74 in 10.0 mi North 23.0 mph 29.9 mph N/A   Overcast
3:15 AM 30.2 °F 17.1 °F 26.6 °F 86% 29.73 in 10.0 mi North 21.9 mph 31.1 mph N/A   Overcast
3:35 AM 32.0 °F 20.1 °F 28.4 °F 87% 29.74 in 9.0 mi NNE 19.6 mph 31.1 mph N/A   Overcast
3:55 AM 32.0 °F 21.2 °F 28.4 °F 87% 29.74 in 8.0 mi North 16.1 mph - N/A   Overcast
4:15 AM 30.2 °F 19.8 °F 28.4 °F 93% 29.75 in 7.0 mi North 13.8 mph 23.0 mph N/A   Overcast
4:35 AM 30.2 °F 17.8 °F 28.4 °F 93% 29.75 in 9.0 mi North 19.6 mph 27.6 mph N/A   Overcast
4:55 AM 30.2 °F 17.4 °F 26.6 °F 86% 29.76 in 10.0 mi North 20.7 mph 27.6 mph N/A   Overcast
5:15 AM 30.2 °F 16.8 °F 26.6 °F 86% 29.77 in 10.0 mi North 23.0 mph 31.1 mph N/A   Overcast
5:35 AM 32.0 °F 19.2 °F 26.6 °F 80% 29.77 in 10.0 mi North 23.0 mph 27.6 mph N/A   Overcast
5:55 AM 30.2 °F 17.8 °F 26.6 °F 86% 29.76 in 10.0 mi North 19.6 mph 27.6 mph N/A   Overcast
6:15 AM 30.2 °F 17.4 °F 24.8 °F 80% 29.77 in 10.0 mi North 20.7 mph 27.6 mph N/A   Overcast
6:35 AM 30.2 °F 17.1 °F 24.8 °F 80% 29.78 in 10.0 mi North 21.9 mph 28.8 mph N/A   Overcast
6:55 AM 30.2 °F 18.1 °F 24.8 °F 80% 29.79 in 10.0 mi North 18.4 mph 26.5 mph N/A   Overcast
7:15 AM 30.2 °F 17.8 °F 24.8 °F 80% 29.80 in 10.0 mi North 19.6 mph 28.8 mph N/A   Overcast
7:35 AM 30.2 °F 17.8 °F 24.8 °F 80% 29.80 in 9.0 mi North 19.6 mph 31.1 mph N/A   Overcast
7:55 AM 30.2 °F 18.5 °F 24.8 °F 80% 29.81 in 10.0 mi North 17.3 mph 24.2 mph N/A   Overcast
8:15 AM 30.2 °F 18.1 °F 24.8 °F 80% 29.81 in 10.0 mi North 18.4 mph 25.3 mph N/A   Overcast
8:35 AM 30.2 °F 17.8 °F 24.8 °F 80% 29.83 in 10.0 mi North 19.6 mph 28.8 mph N/A   Overcast
8:55 AM 32.0 °F 18.9 °F 24.8 °F 75% 29.83 in 10.0 mi North 24.2 mph 29.9 mph N/A   Overcast
9:15 AM 32.0 °F 18.1 °F 24.8 °F 75% 29.83 in 10.0 mi North 27.6 mph 35.7 mph N/A   Overcast
9:35 AM 32.0 °F 19.2 °F 24.8 °F 75% 29.83 in 10.0 mi North 23.0 mph 38.0 mph N/A   Overcast
9:55 AM 32.0 °F 19.2 °F 24.8 °F 75% 29.83 in 10.0 mi North 23.0 mph 28.8 mph N/A   Overcast
10:15 AM 32.0 °F 18.1 °F 24.8 °F 75% 29.82 in 10.0 mi North 27.6 mph 36.8 mph N/A   Overcast
10:35 AM 33.8 °F 22.5 °F 24.8 °F 70% 29.83 in 10.0 mi North 19.6 mph 35.7 mph N/A   Overcast
10:55 AM 33.8 °F 22.5 °F 24.8 °F 70% 29.84 in 10.0 mi North 19.6 mph 32.2 mph N/A   Overcast
11:15 AM 33.8 °F 21.3 °F 24.8 °F 70% 29.84 in 10.0 mi North 24.2 mph 32.2 mph N/A   Overcast
11:35 AM 33.8 °F 21.3 °F 24.8 °F 70% 29.84 in 10.0 mi North 24.2 mph 29.9 mph N/A   Overcast
11:55 AM 33.8 °F 21.6 °F 24.8 °F 70% 29.83 in 10.0 mi North 23.0 mph 34.5 mph N/A   Overcast
12:15 PM 33.8 °F 21.6 °F 24.8 °F 70% 29.82 in 10.0 mi North 23.0 mph 28.8 mph N/A   Overcast
12:35 PM 35.6 °F 24.2 °F 26.6 °F 70% 29.82 in 10.0 mi North 21.9 mph 33.4 mph N/A   Overcast
12:55 PM 35.6 °F 23.2 °F 24.8 °F 65% 29.81 in 10.0 mi North 26.5 mph 32.2 mph N/A   Overcast
1:15 PM 35.6 °F 23.2 °F 24.8 °F 65% 29.81 in 10.0 mi North 26.5 mph 33.4 mph N/A   Overcast
1:35 PM 35.6 °F 24.2 °F 24.8 °F 65% 29.83 in 10.0 mi North 21.9 mph 31.1 mph N/A   Overcast
1:55 PM 35.6 °F 24.2 °F 26.6 °F 70% 29.83 in 10.0 mi North 21.9 mph 34.5 mph N/A   Overcast
2:15 PM 35.6 °F 23.0 °F 26.6 °F 70% 29.83 in 10.0 mi North 27.6 mph 32.2 mph N/A   Overcast
2:35 PM 35.6 °F 24.0 °F 26.6 °F 70% 29.83 in 10.0 mi North 23.0 mph 27.6 mph N/A   Overcast
2:55 PM 35.6 °F 25.5 °F 26.6 °F 70% 29.83 in 10.0 mi North 17.3 mph 28.8 mph N/A   Overcast
3:15 PM 35.6 °F 23.2 °F 24.8 °F 65% 29.82 in 10.0 mi North 26.5 mph 32.2 mph N/A   Overcast
3:35 PM 35.6 °F 23.4 °F 24.8 °F 65% 29.84 in 10.0 mi North 25.3 mph 32.2 mph N/A   Overcast
3:55 PM 35.6 °F 24.0 °F 24.8 °F 65% 29.85 in 10.0 mi North 23.0 mph 29.9 mph N/A   Overcast
4:15 PM 35.6 °F 25.9 °F 26.6 °F 70% 29.87 in 10.0 mi NNE 16.1 mph 24.2 mph N/A   Overcast
4:35 PM 35.6 °F 25.5 °F 26.6 °F 70% 29.87 in 10.0 mi North 17.3 mph 26.5 mph N/A   Overcast
4:55 PM 35.6 °F 24.5 °F 26.6 °F 70% 29.88 in 10.0 mi North 20.7 mph 26.5 mph N/A   Overcast
5:15 PM 35.6 °F 24.5 °F 26.6 °F 70% 29.89 in 10.0 mi North 20.7 mph 29.9 mph N/A   Overcast
5:35 PM 35.6 °F 25.2 °F 28.4 °F 75% 29.89 in 10.0 mi North 18.4 mph 26.5 mph N/A   Overcast
5:55 PM 35.6 °F 23.4 °F 26.6 °F 70% 29.90 in 10.0 mi North 25.3 mph 32.2 mph N/A   Overcast
6:15 PM 35.6 °F 24.2 °F 28.4 °F 75% 29.91 in 10.0 mi North 21.9 mph 28.8 mph N/A   Overcast
6:35 PM 35.6 °F 25.2 °F 28.4 °F 75% 29.91 in 10.0 mi North 18.4 mph - N/A   Overcast
6:55 PM 35.6 °F 25.5 °F 28.4 °F 75% 29.92 in 8.0 mi North 17.3 mph 26.5 mph N/A   Overcast
7:15 PM 33.8 °F 22.5 °F 28.4 °F 81% 29.92 in 10.0 mi North 19.6 mph 28.8 mph N/A   Overcast
7:35 PM 33.8 °F 22.2 °F 28.4 °F 81% 29.93 in 10.0 mi NNE 20.7 mph 26.5 mph N/A   Overcast
7:55 PM 35.6 °F 26.2 °F 28.4 °F 75% 29.93 in 10.0 mi North 15.0 mph 26.5 mph N/A   Overcast
8:15 PM 35.6 °F 25.5 °F 28.4 °F 75% 29.94 in 10.0 mi NNE 17.3 mph 24.2 mph N/A   Mostly Cloudy
8:35 PM 35.6 °F 24.8 °F 26.6 °F 70% 29.94 in 10.0 mi NNE 19.6 mph 23.0 mph N/A   Overcast
8:55 PM 35.6 °F 27.1 °F 26.6 °F 70% 29.95 in 10.0 mi North 12.7 mph - N/A   Overcast
9:15 PM 35.6 °F 24.8 °F 26.6 °F 70% 29.96 in 10.0 mi North 19.6 mph 28.8 mph N/A   Overcast
9:35 PM 35.6 °F 25.2 °F 26.6 °F 70% 29.96 in 10.0 mi North 18.4 mph 24.2 mph N/A   Overcast
9:55 PM 35.6 °F 24.8 °F 26.6 °F 70% 29.97 in 10.0 mi North 19.6 mph 24.2 mph N/A   Overcast
10:15 PM 35.6 °F 25.5 °F 26.6 °F 70% 29.97 in 10.0 mi North 17.3 mph 25.3 mph N/A   Overcast
10:35 PM 35.6 °F 25.5 °F 26.6 °F 70% 29.97 in 10.0 mi North 17.3 mph - N/A   Overcast
10:55 PM 33.8 °F 24.3 °F 26.6 °F 75% 29.97 in 10.0 mi North 13.8 mph - N/A   Overcast
11:15 PM 33.8 °F 22.5 °F 26.6 °F 75% 29.97 in 10.0 mi North 19.6 mph 24.2 mph N/A   Overcast
11:35 PM 33.8 °F 22.8 °F 26.6 °F 75% 29.97 in 10.0 mi North 18.4 mph 27.6 mph N/A   Overcast
11:55 PM 33.8 °F 23.2 °F 26.6 °F 75% 29.98 in 10.0 mi North 17.3 mph - N/A   Overcast